Guo Mao 1 — 5VBT9 — position and weather

sailwx.info

Track history (hours):
 
Tides and Currents Weather Stations Pressure Air Temp Water Temp Dewpoint Dewpoint Depression Visibility Wind Speed Wind Dir Waves Ship Positions

Guo Mao 1

Last reported at 2018-Feb-03 16:00 UTC. Time now 2018-Feb-20 05:16 UTC.
Position N 34°21' E 130°36'.
Warning: this ship's position is 16 days out of date.

Length 99 m; draft 5.5 m.

Type: Cargo ship. MMSI: 671307000.

Date/timePositionNaut miles runAvg speedWind from/ knotsBaromVisibWave heightAir tempDewpointWater temp
2018-Feb-03 16:00N 34°21' E 130°36'3 6.3
2018-Feb-03 15:31N 34°18' E 130°38'3 6.6
2018-Feb-03 15:00N 34°15' E 130°40'3 6.6
2018-Feb-03 14:30N 34°12' E 130°42'3 6.6
2018-Feb-03 13:59N 34°09' E 130°43'3 6.8
2018-Feb-03 13:30N 34°06' E 130°45'4 7.1
2018-Feb-03 13:00N 34°03' E 130°47'4 8.1
2018-Feb-03 12:29N 34°01' E 130°51'3 7.1
2018-Feb-03 12:00N 33°57' E 130°52'4 7.2
2018-Feb-03 11:29N 33°55' E 130°56'4 8.0
2018-Feb-03 11:00N 33°58' E 130°58'4 7.0
2018-Feb-03 10:30N 33°58' E 131°02'5 8.7
2018-Feb-03 09:57N 33°55' E 131°07'3 6.9
2018-Feb-03 09:29N 33°53' E 131°10'3 6.5
2018-Feb-03 08:59N 33°52' E 131°13'3 5.8
2018-Feb-03 08:30N 33°51' E 131°16'3 5.7
2018-Feb-03 07:59N 33°50' E 131°20'1 0.8
2018-Feb-03 06:30N 33°51' E 131°19'4 7.5
2018-Feb-03 06:00N 33°50' E 131°23'4 8.0
2018-Feb-03 05:30N 33°49' E 131°28'4 7.9
2018-Feb-03 05:00N 33°48' E 131°32'8 7.7
2018-Feb-03 04:00N 33°46' E 131°41'25 8.5
2018-Feb-03 01:01N 33°43' E 132°11'2 8.6
2018-Feb-03 00:49N 33°43' E 132°13'25 8.7
2018-Feb-02 21:58N 33°56' E 132°39'98 9.2
2018-Feb-02 11:19N 34°28' E 134°31'4 9.8
2018-Feb-02 10:53N 34°30' E 134°36'4 9.7
2018-Feb-02 10:30N 34°31' E 134°40'5 9.7
2018-Feb-02 09:59N 34°33' E 134°46'5 9.6
2018-Feb-02 09:30N 34°35' E 134°51'5 9.2
2018-Feb-02 09:00N 34°37' E 134°56'4 8.1
2018-Feb-02 08:30N 34°38' E 135°01'3 6.3
2018-Feb-02 08:00N 34°36' E 135°04'4 7.3
2018-Feb-02 07:30N 34°35' E 135°08'4 8.6
2018-Feb-02 06:59N 34°34' E 135°13'4 8.6
2018-Feb-02 06:30N 34°33' E 135°18'4 7.6
2018-Feb-02 05:59N 34°32' E 135°23'1 2.2
2018-Feb-02 05:30N 34°31' E 135°24'0 0.0
2018-Feb-02 05:00N 34°31' E 135°24'0 0.0
2018-Feb-02 04:30N 34°31' E 135°24'0 0.0
2018-Feb-02 03:54N 34°31' E 135°24'0 0.0
2018-Feb-02 03:30N 34°31' E 135°24'0 0.0
2018-Feb-02 03:00N 34°31' E 135°24'0 0.0
2018-Feb-02 02:24N 34°31' E 135°24'0 0.0
2018-Feb-02 01:42N 34°31' E 135°24'0 0.0
2018-Feb-02 01:30N 34°31' E 135°24'0 0.0
2018-Feb-02 01:00N 34°31' E 135°24'0 0.0
2018-Feb-02 00:30N 34°31' E 135°24'0 0.0
2018-Feb-02 00:00N 34°31' E 135°24'0 0.0
2018-Feb-01 23:24N 34°31' E 135°24'0 0.0
2018-Feb-01 23:00N 34°31' E 135°24'0 0.0
2018-Feb-01 22:00N 34°31' E 135°24'0 0.0
2018-Feb-01 21:30N 34°31' E 135°24'0 0.0
2018-Feb-01 19:30N 34°31' E 135°24'0 0.0
2018-Feb-01 19:00N 34°31' E 135°24'0 0.0
2018-Feb-01 18:24N 34°31' E 135°24'0 0.0
2018-Feb-01 18:00N 34°31' E 135°24'0 0.0
2018-Feb-01 17:30N 34°31' E 135°24'0 0.0
2018-Feb-01 17:00N 34°31' E 135°24'0 0.0
2018-Feb-01 16:30N 34°31' E 135°24'0 0.0
2018-Feb-01 16:00N 34°31' E 135°24'0 0.0
2018-Feb-01 15:30N 34°31' E 135°24'0 0.0
2018-Feb-01 14:57N 34°31' E 135°24'0 0.0
2018-Feb-01 13:27N 34°31' E 135°24'0 0.0
2018-Feb-01 12:57N 34°31' E 135°24'0 0.0
2018-Feb-01 12:27N 34°31' E 135°24'0 0.0
2018-Feb-01 11:57N 34°31' E 135°24'0 0.0
2018-Feb-01 10:57N 34°31' E 135°24'0 0.0
2018-Feb-01 10:27N 34°31' E 135°24'0 0.0
2018-Feb-01 09:57N 34°31' E 135°24'0 0.0
2018-Feb-01 09:27N 34°31' E 135°24'0 0.0
2018-Feb-01 08:57N 34°31' E 135°24'0 0.0
2018-Feb-01 08:27N 34°31' E 135°24'0 0.0
2018-Feb-01 07:27N 34°31' E 135°24'0 0.0
2018-Feb-01 06:57N 34°31' E 135°24'0 0.0
2018-Feb-01 06:27N 34°31' E 135°24'0 0.0
2018-Feb-01 05:57N 34°31' E 135°24'0 0.0
2018-Feb-01 05:27N 34°31' E 135°24'0 0.0
2018-Feb-01 04:57N 34°31' E 135°24'0 0.0
2018-Feb-01 04:27N 34°31' E 135°24'0 0.0
2018-Feb-01 03:57N 34°31' E 135°24'0 0.0
2018-Feb-01 02:57N 34°31' E 135°24'0 0.0
2018-Feb-01 02:21N 34°31' E 135°24'0 0.0
2018-Feb-01 01:57N 34°31' E 135°24'0 0.0
2018-Feb-01 01:15N 34°31' E 135°24'0 0.0
2018-Feb-01 00:57N 34°31' E 135°24'0 0.0
2018-Feb-01 00:27N 34°31' E 135°24'0 0.0
2018-Jan-31 23:51N 34°31' E 135°24'0 0.0
2018-Jan-31 22:57N 34°31' E 135°24'0 0.0
2018-Jan-31 22:27N 34°31' E 135°24'0 0.0
2018-Jan-31 20:57N 34°31' E 135°24'0 0.0
2018-Jan-31 20:21N 34°31' E 135°24'0 0.0
2018-Jan-31 19:57N 34°31' E 135°24'0 0.0
2018-Jan-31 19:27N 34°31' E 135°24'0 0.0
2018-Jan-31 18:57N 34°31' E 135°24'0 0.0
2018-Jan-31 18:27N 34°31' E 135°24'0 0.0
2018-Jan-31 17:57N 34°31' E 135°24'0 0.0
2018-Jan-31 17:27N 34°31' E 135°24'0 0.0
2018-Jan-31 16:57N 34°31' E 135°24'0 0.0
2018-Jan-31 16:27N 34°31' E 135°24'0 0.0
2018-Jan-31 15:57N 34°31' E 135°24'0 0.0
2018-Jan-31 15:21N 34°31' E 135°24'0 0.0
2018-Jan-31 14:57N 34°31' E 135°24'0 0.0
2018-Jan-31 14:27N 34°31' E 135°24'0 0.0
2018-Jan-31 12:57N 34°31' E 135°24'0 0.0
2018-Jan-31 12:27N 34°31' E 135°24'0 0.0
2018-Jan-31 11:57N 34°31' E 135°24'0 0.0
2018-Jan-31 11:27N 34°31' E 135°24'0 0.0
2018-Jan-31 10:57N 34°31' E 135°24'0 0.0
2018-Jan-31 10:27N 34°31' E 135°24'0 0.0
2018-Jan-31 09:57N 34°31' E 135°24'0 0.0
2018-Jan-31 09:27N 34°31' E 135°24'0 0.0
2018-Jan-31 08:57N 34°31' E 135°24'0 0.0
2018-Jan-31 08:27N 34°31' E 135°24'0 0.0
2018-Jan-31 07:57N 34°31' E 135°24'0 0.0
2018-Jan-31 07:21N 34°31' E 135°24'0 0.0
2018-Jan-31 06:57N 34°31' E 135°24'0 0.0
2018-Jan-31 06:27N 34°31' E 135°24'0 0.0
2018-Jan-31 05:57N 34°31' E 135°24'0 0.0
2018-Jan-31 05:27N 34°31' E 135°24'0 0.0
2018-Jan-31 04:57N 34°31' E 135°24'0 0.0
2018-Jan-31 04:27N 34°31' E 135°24'0 0.0
2018-Jan-31 03:57N 34°31' E 135°24'0 0.0
2018-Jan-31 03:27N 34°31' E 135°24'0 0.0
2018-Jan-31 02:57N 34°31' E 135°24'0 0.0
2018-Jan-31 02:27N 34°31' E 135°24'0 0.0
2018-Jan-31 01:57N 34°31' E 135°24'0 0.0
2018-Jan-31 01:27N 34°31' E 135°24'0 0.0
2018-Jan-31 00:57N 34°31' E 135°24'0 0.0
2018-Jan-30 23:57N 34°31' E 135°24'0 0.0
2018-Jan-30 23:27N 34°31' E 135°24'0 0.0
2018-Jan-30 22:57N 34°31' E 135°24'0 0.0
2018-Jan-30 22:27N 34°31' E 135°24'0 0.0
2018-Jan-30 21:27N 34°31' E 135°24'0 0.0
2018-Jan-30 20:57N 34°31' E 135°24'0 0.0
2018-Jan-30 20:27N 34°31' E 135°24'0 0.0
2018-Jan-30 19:57N 34°31' E 135°24'0 0.0
2018-Jan-30 19:27N 34°31' E 135°24'0 0.0
2018-Jan-30 18:57N 34°31' E 135°24'0 0.0
2018-Jan-30 18:21N 34°31' E 135°24'0 0.0
2018-Jan-30 17:57N 34°31' E 135°24'0 0.0
2018-Jan-30 17:27N 34°31' E 135°24'0 0.0
2018-Jan-30 16:51N 34°31' E 135°24'0 0.0
2018-Jan-30 16:27N 34°31' E 135°24'0 0.0
2018-Jan-30 15:57N 34°31' E 135°24'0 0.0
2018-Jan-30 15:27N 34°31' E 135°24'0 0.0
2018-Jan-30 14:57N 34°31' E 135°24'0 0.0
2018-Jan-30 14:27N 34°31' E 135°24'0 0.0
2018-Jan-30 13:27N 34°31' E 135°24'0 0.0
2018-Jan-30 12:57N 34°31' E 135°24'0 0.0
2018-Jan-30 12:21N 34°31' E 135°24'0 0.0
2018-Jan-30 11:57N 34°31' E 135°24'0 0.0
2018-Jan-30 11:27N 34°31' E 135°24'0 0.0
2018-Jan-30 10:27N 34°31' E 135°24'0 0.0
2018-Jan-30 09:27N 34°31' E 135°24'0 0.0
2018-Jan-30 08:57N 34°31' E 135°24'0 0.0
2018-Jan-30 08:27N 34°31' E 135°24'0 0.0
2018-Jan-30 07:45N 34°31' E 135°24'0 0.0
2018-Jan-30 07:27N 34°31' E 135°24'0 0.0
2018-Jan-30 06:57N 34°31' E 135°24'0 0.0
2018-Jan-30 06:27N 34°31' E 135°24'0 0.0
2018-Jan-30 05:57N 34°31' E 135°24'0 0.0
2018-Jan-30 05:27N 34°31' E 135°24'0 0.0
2018-Jan-30 04:57N 34°31' E 135°24'0 0.0
2018-Jan-30 04:27N 34°31' E 135°24'0 0.0
2018-Jan-30 03:57N 34°31' E 135°24'0 0.0
2018-Jan-30 03:27N 34°31' E 135°24'0 0.0
2018-Jan-30 02:57N 34°31' E 135°24'0 0.0
2018-Jan-30 02:27N 34°31' E 135°24'0 0.0
2018-Jan-30 01:57N 34°31' E 135°24'0 0.0
2018-Jan-30 01:27N 34°31' E 135°24'0 0.0
2018-Jan-30 00:57N 34°31' E 135°24'0 0.0
2018-Jan-30 00:27N 34°31' E 135°24'0 0.0
2018-Jan-29 23:57N 34°31' E 135°24'0 0.0
2018-Jan-29 23:27N 34°31' E 135°24'0 0.0
2018-Jan-29 22:57N 34°31' E 135°24'0 0.0
2018-Jan-29 22:27N 34°31' E 135°24'1 2.3
2018-Jan-29 21:57N 34°32' E 135°23'1 2.4
2018-Jan-29 21:27N 34°32' E 135°21'0 0.0
2018-Jan-29 21:00N 34°32' E 135°21'0 0.0
2018-Jan-29 20:30N 34°32' E 135°21'0 0.0
2018-Jan-29 20:00N 34°32' E 135°21'0 0.0
2018-Jan-29 19:27N 34°32' E 135°21'0 0.0
2018-Jan-29 18:57N 34°32' E 135°21'0 0.0
2018-Jan-29 18:30N 34°32' E 135°21'0 0.0
2018-Jan-29 17:57N 34°32' E 135°21'0 0.0
2018-Jan-29 17:30N 34°32' E 135°21'0 0.0
2018-Jan-29 16:57N 34°32' E 135°21'0 0.0
2018-Jan-29 16:30N 34°32' E 135°21'0 0.0
2018-Jan-29 16:00N 34°32' E 135°21'0 0.0
2018-Jan-29 15:30N 34°32' E 135°21'0 0.0
2018-Jan-29 14:57N 34°32' E 135°21'0 0.0
2018-Jan-29 14:30N 34°32' E 135°21'0 0.0
2018-Jan-29 14:00N 34°32' E 135°21'0 0.0
2018-Jan-29 13:30N 34°32' E 135°21'0 0.0
2018-Jan-29 13:00N 34°32' E 135°21'0 0.0
2018-Jan-29 12:30N 34°32' E 135°21'0 0.0
2018-Jan-29 11:57N 34°32' E 135°21'0 0.1
2018-Jan-29 11:27N 34°32' E 135°21'1 1.6
2018-Jan-29 11:00N 34°33' E 135°21'5 9.3
2018-Jan-29 10:30N 34°33' E 135°15'510.5
2018-Jan-29 10:00N 34°34' E 135°09'510.5
2018-Jan-29 09:30N 34°36' E 135°03'4 7.6
2018-Jan-29 09:00N 34°37' E 134°58'5 9.4
2018-Jan-29 08:30N 34°35' E 134°53'5 9.9
2018-Jan-29 08:00N 34°33' E 134°47'510.3
2018-Jan-29 07:30N 34°31' E 134°42'510.5
2018-Jan-29 07:00N 34°28' E 134°36'510.8
2018-Jan-29 06:30N 34°26' E 134°30'  
2018-Jan-25 19:47N 34°00' E 132°45'3 9.8
2018-Jan-25 19:30N 33°58' E 132°44'510.0
2018-Jan-25 19:00N 33°55' E 132°39'5 9.6
2018-Jan-25 18:27N 33°51' E 132°34'36 8.7
2018-Jan-25 14:18N 33°44' E 131°52'6 9.0
2018-Jan-25 13:35N 33°46' E 131°44'2 9.4
2018-Jan-25 13:24N 33°46' E 131°42'4 9.2
2018-Jan-25 12:56N 33°47' E 131°37'4 9.2
2018-Jan-25 12:30N 33°48' E 131°32'5 9.2
2018-Jan-25 11:59N 33°49' E 131°27'5 9.4
2018-Jan-25 11:30N 33°50' E 131°21'5 9.4
2018-Jan-25 11:00N 33°51' E 131°16'5 9.5
2018-Jan-25 10:29N 33°52' E 131°10'5 9.6
2018-Jan-25 10:00N 33°55' E 131°06'5 9.2
2018-Jan-25 09:29N 33°58' E 131°02'4 7.8
2018-Jan-25 09:00N 33°57' E 130°57'4 7.3
2018-Jan-25 08:31N 33°54' E 130°54'4 8.1
2018-Jan-25 08:00N 33°57' E 130°51'4 8.0
2018-Jan-25 07:31N 34°01' E 130°50'5 9.1
2018-Jan-25 07:00N 34°04' E 130°46'4 8.4
2018-Jan-25 06:30N 34°08' E 130°44'4 8.7
2018-Jan-25 06:00N 34°12' E 130°42'4 8.8
2018-Jan-25 05:30N 34°16' E 130°40'4 8.7
2018-Jan-25 05:00N 34°20' E 130°38'4 8.8
2018-Jan-25 04:30N 34°25' E 130°37'  
Track history (hours):
 
Tides and Currents Weather Stations Pressure Air Temp Water Temp Dewpoint Dewpoint Depression Visibility Wind Speed Wind Dir Waves Ship Positions

Guo Mao 1

Last reported at 2018-Feb-03 16:00 UTC. Time now 2018-Feb-20 05:16 UTC.
Position N 34°21' E 130°36'.
Warning: this ship's position is 16 days out of date.

Length 99 m; draft 5.5 m.

Type: Cargo ship. MMSI: 671307000.

Date/timePositionNaut miles runAvg speedWind from/ knotsBaromVisibWave heightAir tempDewpointWater temp
2018-Feb-03 16:00N 34°21' E 130°36'3 6.3
2018-Feb-03 15:31N 34°18' E 130°38'3 6.6
2018-Feb-03 15:00N 34°15' E 130°40'3 6.6
2018-Feb-03 14:30N 34°12' E 130°42'3 6.6
2018-Feb-03 13:59N 34°09' E 130°43'3 6.8
2018-Feb-03 13:30N 34°06' E 130°45'4 7.1
2018-Feb-03 13:00N 34°03' E 130°47'4 8.1
2018-Feb-03 12:29N 34°01' E 130°51'3 7.1
2018-Feb-03 12:00N 33°57' E 130°52'4 7.2
2018-Feb-03 11:29N 33°55' E 130°56'4 8.0
2018-Feb-03 11:00N 33°58' E 130°58'4 7.0
2018-Feb-03 10:30N 33°58' E 131°02'5 8.7
2018-Feb-03 09:57N 33°55' E 131°07'3 6.9
2018-Feb-03 09:29N 33°53' E 131°10'3 6.5
2018-Feb-03 08:59N 33°52' E 131°13'3 5.8
2018-Feb-03 08:30N 33°51' E 131°16'3 5.7
2018-Feb-03 07:59N 33°50' E 131°20'1 0.8
2018-Feb-03 06:30N 33°51' E 131°19'4 7.5
2018-Feb-03 06:00N 33°50' E 131°23'4 8.0
2018-Feb-03 05:30N 33°49' E 131°28'4 7.9
2018-Feb-03 05:00N 33°48' E 131°32'8 7.7
2018-Feb-03 04:00N 33°46' E 131°41'25 8.5
2018-Feb-03 01:01N 33°43' E 132°11'2 8.6
2018-Feb-03 00:49N 33°43' E 132°13'25 8.7
2018-Feb-02 21:58N 33°56' E 132°39'98 9.2
2018-Feb-02 11:19N 34°28' E 134°31'4 9.8
2018-Feb-02 10:53N 34°30' E 134°36'4 9.7
2018-Feb-02 10:30N 34°31' E 134°40'5 9.7
2018-Feb-02 09:59N 34°33' E 134°46'5 9.6
2018-Feb-02 09:30N 34°35' E 134°51'5 9.2
2018-Feb-02 09:00N 34°37' E 134°56'4 8.1
2018-Feb-02 08:30N 34°38' E 135°01'3 6.3
2018-Feb-02 08:00N 34°36' E 135°04'4 7.3
2018-Feb-02 07:30N 34°35' E 135°08'4 8.6
2018-Feb-02 06:59N 34°34' E 135°13'4 8.6
2018-Feb-02 06:30N 34°33' E 135°18'4 7.6
2018-Feb-02 05:59N 34°32' E 135°23'1 2.2
2018-Feb-02 05:30N 34°31' E 135°24'0 0.0
2018-Feb-02 05:00N 34°31' E 135°24'0 0.0
2018-Feb-02 04:30N 34°31' E 135°24'0 0.0
2018-Feb-02 03:54N 34°31' E 135°24'0 0.0
2018-Feb-02 03:30N 34°31' E 135°24'0 0.0
2018-Feb-02 03:00N 34°31' E 135°24'0 0.0
2018-Feb-02 02:24N 34°31' E 135°24'0 0.0
2018-Feb-02 01:42N 34°31' E 135°24'0 0.0
2018-Feb-02 01:30N 34°31' E 135°24'0 0.0
2018-Feb-02 01:00N 34°31' E 135°24'0 0.0
2018-Feb-02 00:30N 34°31' E 135°24'0 0.0
2018-Feb-02 00:00N 34°31' E 135°24'0 0.0
2018-Feb-01 23:24N 34°31' E 135°24'0 0.0
2018-Feb-01 23:00N 34°31' E 135°24'0 0.0
2018-Feb-01 22:00N 34°31' E 135°24'0 0.0
2018-Feb-01 21:30N 34°31' E 135°24'0 0.0
2018-Feb-01 19:30N 34°31' E 135°24'0 0.0
2018-Feb-01 19:00N 34°31' E 135°24'0 0.0
2018-Feb-01 18:24N 34°31' E 135°24'0 0.0
2018-Feb-01 18:00N 34°31' E 135°24'0 0.0
2018-Feb-01 17:30N 34°31' E 135°24'0 0.0
2018-Feb-01 17:00N 34°31' E 135°24'0 0.0
2018-Feb-01 16:30N 34°31' E 135°24'0 0.0
2018-Feb-01 16:00N 34°31' E 135°24'0 0.0
2018-Feb-01 15:30N 34°31' E 135°24'0 0.0
2018-Feb-01 14:57N 34°31' E 135°24'0 0.0
2018-Feb-01 13:27N 34°31' E 135°24'0 0.0
2018-Feb-01 12:57N 34°31' E 135°24'0 0.0
2018-Feb-01 12:27N 34°31' E 135°24'0 0.0
2018-Feb-01 11:57N 34°31' E 135°24'0 0.0
2018-Feb-01 10:57N 34°31' E 135°24'0 0.0
2018-Feb-01 10:27N 34°31' E 135°24'0 0.0
2018-Feb-01 09:57N 34°31' E 135°24'0 0.0
2018-Feb-01 09:27N 34°31' E 135°24'0 0.0
2018-Feb-01 08:57N 34°31' E 135°24'0 0.0
2018-Feb-01 08:27N 34°31' E 135°24'0 0.0
2018-Feb-01 07:27N 34°31' E 135°24'0 0.0
2018-Feb-01 06:57N 34°31' E 135°24'0 0.0
2018-Feb-01 06:27N 34°31' E 135°24'0 0.0
2018-Feb-01 05:57N 34°31' E 135°24'0 0.0
2018-Feb-01 05:27N 34°31' E 135°24'0 0.0
2018-Feb-01 04:57N 34°31' E 135°24'0 0.0
2018-Feb-01 04:27N 34°31' E 135°24'0 0.0
2018-Feb-01 03:57N 34°31' E 135°24'0 0.0
2018-Feb-01 02:57N 34°31' E 135°24'0 0.0
2018-Feb-01 02:21N 34°31' E 135°24'0 0.0
2018-Feb-01 01:57N 34°31' E 135°24'0 0.0
2018-Feb-01 01:15N 34°31' E 135°24'0 0.0
2018-Feb-01 00:57N 34°31' E 135°24'0 0.0
2018-Feb-01 00:27N 34°31' E 135°24'0 0.0
2018-Jan-31 23:51N 34°31' E 135°24'0 0.0
2018-Jan-31 22:57N 34°31' E 135°24'0 0.0
2018-Jan-31 22:27N 34°31' E 135°24'0 0.0
2018-Jan-31 20:57N 34°31' E 135°24'0 0.0
2018-Jan-31 20:21N 34°31' E 135°24'0 0.0
2018-Jan-31 19:57N 34°31' E 135°24'0 0.0
2018-Jan-31 19:27N 34°31' E 135°24'0 0.0
2018-Jan-31 18:57N 34°31' E 135°24'0 0.0
2018-Jan-31 18:27N 34°31' E 135°24'0 0.0
2018-Jan-31 17:57N 34°31' E 135°24'0 0.0
2018-Jan-31 17:27N 34°31' E 135°24'0 0.0
2018-Jan-31 16:57N 34°31' E 135°24'0 0.0
2018-Jan-31 16:27N 34°31' E 135°24'0 0.0
2018-Jan-31 15:57N 34°31' E 135°24'0 0.0
2018-Jan-31 15:21N 34°31' E 135°24'0 0.0
2018-Jan-31 14:57N 34°31' E 135°24'0 0.0
2018-Jan-31 14:27N 34°31' E 135°24'0 0.0
2018-Jan-31 12:57N 34°31' E 135°24'0 0.0
2018-Jan-31 12:27N 34°31' E 135°24'0 0.0
2018-Jan-31 11:57N 34°31' E 135°24'0 0.0
2018-Jan-31 11:27N 34°31' E 135°24'0 0.0
2018-Jan-31 10:57N 34°31' E 135°24'0 0.0
2018-Jan-31 10:27N 34°31' E 135°24'0 0.0
2018-Jan-31 09:57N 34°31' E 135°24'0 0.0
2018-Jan-31 09:27N 34°31' E 135°24'0 0.0
2018-Jan-31 08:57N 34°31' E 135°24'0 0.0
2018-Jan-31 08:27N 34°31' E 135°24'0 0.0
2018-Jan-31 07:57N 34°31' E 135°24'0 0.0
2018-Jan-31 07:21N 34°31' E 135°24'0 0.0
2018-Jan-31 06:57N 34°31' E 135°24'0 0.0
2018-Jan-31 06:27N 34°31' E 135°24'0 0.0
2018-Jan-31 05:57N 34°31' E 135°24'0 0.0
2018-Jan-31 05:27N 34°31' E 135°24'0 0.0
2018-Jan-31 04:57N 34°31' E 135°24'0 0.0
2018-Jan-31 04:27N 34°31' E 135°24'0 0.0
2018-Jan-31 03:57N 34°31' E 135°24'0 0.0
2018-Jan-31 03:27N 34°31' E 135°24'0 0.0
2018-Jan-31 02:57N 34°31' E 135°24'0 0.0
2018-Jan-31 02:27N 34°31' E 135°24'0 0.0
2018-Jan-31 01:57N 34°31' E 135°24'0 0.0
2018-Jan-31 01:27N 34°31' E 135°24'0 0.0
2018-Jan-31 00:57N 34°31' E 135°24'0 0.0
2018-Jan-30 23:57N 34°31' E 135°24'0 0.0
2018-Jan-30 23:27N 34°31' E 135°24'0 0.0
2018-Jan-30 22:57N 34°31' E 135°24'0 0.0
2018-Jan-30 22:27N 34°31' E 135°24'0 0.0
2018-Jan-30 21:27N 34°31' E 135°24'0 0.0
2018-Jan-30 20:57N 34°31' E 135°24'0 0.0
2018-Jan-30 20:27N 34°31' E 135°24'0 0.0
2018-Jan-30 19:57N 34°31' E 135°24'0 0.0
2018-Jan-30 19:27N 34°31' E 135°24'0 0.0
2018-Jan-30 18:57N 34°31' E 135°24'0 0.0
2018-Jan-30 18:21N 34°31' E 135°24'0 0.0
2018-Jan-30 17:57N 34°31' E 135°24'0 0.0
2018-Jan-30 17:27N 34°31' E 135°24'0 0.0
2018-Jan-30 16:51N 34°31' E 135°24'0 0.0
2018-Jan-30 16:27N 34°31' E 135°24'0 0.0
2018-Jan-30 15:57N 34°31' E 135°24'0 0.0
2018-Jan-30 15:27N 34°31' E 135°24'0 0.0
2018-Jan-30 14:57N 34°31' E 135°24'0 0.0
2018-Jan-30 14:27N 34°31' E 135°24'0 0.0
2018-Jan-30 13:27N 34°31' E 135°24'0 0.0
2018-Jan-30 12:57N 34°31' E 135°24'0 0.0
2018-Jan-30 12:21N 34°31' E 135°24'0 0.0
2018-Jan-30 11:57N 34°31' E 135°24'0 0.0
2018-Jan-30 11:27N 34°31' E 135°24'0 0.0
2018-Jan-30 10:27N 34°31' E 135°24'0 0.0
2018-Jan-30 09:27N 34°31' E 135°24'0 0.0
2018-Jan-30 08:57N 34°31' E 135°24'0 0.0
2018-Jan-30 08:27N 34°31' E 135°24'0 0.0
2018-Jan-30 07:45N 34°31' E 135°24'0 0.0
2018-Jan-30 07:27N 34°31' E 135°24'0 0.0
2018-Jan-30 06:57N 34°31' E 135°24'0 0.0
2018-Jan-30 06:27N 34°31' E 135°24'0 0.0
2018-Jan-30 05:57N 34°31' E 135°24'0 0.0
2018-Jan-30 05:27N 34°31' E 135°24'0 0.0
2018-Jan-30 04:57N 34°31' E 135°24'0 0.0
2018-Jan-30 04:27N 34°31' E 135°24'0 0.0
2018-Jan-30 03:57N 34°31' E 135°24'0 0.0
2018-Jan-30 03:27N 34°31' E 135°24'0 0.0
2018-Jan-30 02:57N 34°31' E 135°24'0 0.0
2018-Jan-30 02:27N 34°31' E 135°24'0 0.0
2018-Jan-30 01:57N 34°31' E 135°24'0 0.0
2018-Jan-30 01:27N 34°31' E 135°24'0 0.0
2018-Jan-30 00:57N 34°31' E 135°24'0 0.0
2018-Jan-30 00:27N 34°31' E 135°24'0 0.0
2018-Jan-29 23:57N 34°31' E 135°24'0 0.0
2018-Jan-29 23:27N 34°31' E 135°24'0 0.0
2018-Jan-29 22:57N 34°31' E 135°24'0 0.0
2018-Jan-29 22:27N 34°31' E 135°24'1 2.3
2018-Jan-29 21:57N 34°32' E 135°23'1 2.4
2018-Jan-29 21:27N 34°32' E 135°21'0 0.0
2018-Jan-29 21:00N 34°32' E 135°21'0 0.0
2018-Jan-29 20:30N 34°32' E 135°21'0 0.0
2018-Jan-29 20:00N 34°32' E 135°21'0 0.0
2018-Jan-29 19:27N 34°32' E 135°21'0 0.0
2018-Jan-29 18:57N 34°32' E 135°21'0 0.0
2018-Jan-29 18:30N 34°32' E 135°21'0 0.0
2018-Jan-29 17:57N 34°32' E 135°21'0 0.0
2018-Jan-29 17:30N 34°32' E 135°21'0 0.0
2018-Jan-29 16:57N 34°32' E 135°21'0 0.0
2018-Jan-29 16:30N 34°32' E 135°21'0 0.0
2018-Jan-29 16:00N 34°32' E 135°21'0 0.0
2018-Jan-29 15:30N 34°32' E 135°21'0 0.0
2018-Jan-29 14:57N 34°32' E 135°21'0 0.0
2018-Jan-29 14:30N 34°32' E 135°21'0 0.0
2018-Jan-29 14:00N 34°32' E 135°21'0 0.0
2018-Jan-29 13:30N 34°32' E 135°21'0 0.0
2018-Jan-29 13:00N 34°32' E 135°21'0 0.0
2018-Jan-29 12:30N 34°32' E 135°21'0 0.0
2018-Jan-29 11:57N 34°32' E 135°21'0 0.1
2018-Jan-29 11:27N 34°32' E 135°21'1 1.6
2018-Jan-29 11:00N 34°33' E 135°21'5 9.3
2018-Jan-29 10:30N 34°33' E 135°15'510.5
2018-Jan-29 10:00N 34°34' E 135°09'510.5
2018-Jan-29 09:30N 34°36' E 135°03'4 7.6
2018-Jan-29 09:00N 34°37' E 134°58'5 9.4
2018-Jan-29 08:30N 34°35' E 134°53'5 9.9
2018-Jan-29 08:00N 34°33' E 134°47'510.3
2018-Jan-29 07:30N 34°31' E 134°42'510.5
2018-Jan-29 07:00N 34°28' E 134°36'510.8
2018-Jan-29 06:30N 34°26' E 134°30'  
2018-Jan-25 19:47N 34°00' E 132°45'3 9.8
2018-Jan-25 19:30N 33°58' E 132°44'510.0
2018-Jan-25 19:00N 33°55' E 132°39'5 9.6
2018-Jan-25 18:27N 33°51' E 132°34'36 8.7
2018-Jan-25 14:18N 33°44' E 131°52'6 9.0
2018-Jan-25 13:35N 33°46' E 131°44'2 9.4
2018-Jan-25 13:24N 33°46' E 131°42'4 9.2
2018-Jan-25 12:56N 33°47' E 131°37'4 9.2
2018-Jan-25 12:30N 33°48' E 131°32'5 9.2
2018-Jan-25 11:59N 33°49' E 131°27'5 9.4
2018-Jan-25 11:30N 33°50' E 131°21'5 9.4
2018-Jan-25 11:00N 33°51' E 131°16'5 9.5
2018-Jan-25 10:29N 33°52' E 131°10'5 9.6
2018-Jan-25 10:00N 33°55' E 131°06'5 9.2
2018-Jan-25 09:29N 33°58' E 131°02'4 7.8
2018-Jan-25 09:00N 33°57' E 130°57'4 7.3
2018-Jan-25 08:31N 33°54' E 130°54'4 8.1
2018-Jan-25 08:00N 33°57' E 130°51'4 8.0
2018-Jan-25 07:31N 34°01' E 130°50'5 9.1
2018-Jan-25 07:00N 34°04' E 130°46'4 8.4
2018-Jan-25 06:30N 34°08' E 130°44'4 8.7
2018-Jan-25 06:00N 34°12' E 130°42'4 8.8
2018-Jan-25 05:30N 34°16' E 130°40'4 8.7
2018-Jan-25 05:00N 34°20' E 130°38'4 8.8
2018-Jan-25 04:30N 34°25' E 130°37'  

Dump ship's entire track history